createdAt,value
2016-12-17T01:34:02.701Z,0
2016-12-17T01:34:55.805Z,0
2016-12-17T01:36:41.428Z,0
2016-12-17T01:37:34.741Z,0
2016-12-17T01:38:26.827Z,0
2016-12-17T01:39:52.215Z,0
2016-12-17T01:40:46.191Z,0
2016-12-17T01:41:39.351Z,0
2016-12-17T02:38:55.942Z,0
2016-12-17T05:36:07.687Z,0
2016-12-17T05:37:01.195Z,0
2016-12-17T05:37:54.834Z,0
2016-12-17T05:39:19.848Z,0
2016-12-17T05:40:13.946Z,0
2016-12-17T05:42:00.613Z,0
2016-12-17T05:42:54.175Z,0
2016-12-17T05:43:48.088Z,0
2016-12-17T05:44:41.180Z,0
2016-12-17T05:46:06.622Z,0
2016-12-17T05:47:00.488Z,0
2016-12-17T05:48:25.286Z,0
2016-12-17T05:49:18.773Z,0
2016-12-17T05:50:12.291Z,0
2016-12-17T05:51:37.620Z,0
2016-12-17T05:54:02.962Z,0
2016-12-17T06:33:29.565Z,0
2016-12-17T06:34:22.758Z,0
2016-12-17T06:35:16.400Z,0
2016-12-17T06:36:10.267Z,0
2016-12-17T06:37:03.655Z,0
2016-12-17T06:37:57.203Z,0
2016-12-17T06:38:50.385Z,0
2016-12-17T06:39:44.245Z,0
2016-12-17T06:40:37.502Z,0
2016-12-17T06:41:31.147Z,0
2016-12-17T06:42:24.657Z,0
2016-12-17T06:43:18.609Z,4
2016-12-17T06:45:37.213Z,0
2016-12-17T06:46:31.125Z,0
2016-12-17T06:47:24.235Z,4
2016-12-17T06:48:17.744Z,4
2016-12-17T06:49:11.459Z,4
2016-12-17T06:50:04.872Z,0
2016-12-17T06:50:58.315Z,4
2016-12-17T06:51:52.130Z,4
2016-12-17T06:53:17.200Z,4
2016-12-17T06:54:11.031Z,8
2016-12-17T06:55:04.618Z,4
2016-12-17T07:34:46.145Z,316
2016-12-17T07:35:39.740Z,344
2016-12-17T07:36:33.098Z,372
2016-12-17T07:37:27.006Z,388
2016-12-17T07:38:20.112Z,396
2016-12-17T07:40:16.233Z,444
2016-12-17T07:41:09.341Z,460
2016-12-17T07:42:35.315Z,460
2016-12-17T17:47:43.732Z,0
